Time;durP1;ratioP1;P1;durP2;ratioP2;P2;SDS_P1;SDS_P2;PMS_P1;PMS_P2;Temp;Humidity;BMP_temperature;BMP_pressure;BME280_temperature;BME280_humidity;BME280_pressure;Samples;Min_cycle;Max_cycle;Signal;HPM_P1;HPM_P2
2022/02/11 00:02:16;;;;;;;7.95;0.90;;;;;;;3.23;69.57;101579.19;5098768;28;19912;-74
2022/02/11 00:07:32;;;;;;;12.70;1.00;;;;;;;3.13;69.53;101579.47;5111305;28;20143;-74
2022/02/11 00:09:58;;;;;;;3.03;1.10;;;;;;;3.21;69.54;101609.09;5110072;28;20075;-73
2022/02/11 00:12:27;;;;;;;5.22;0.88;;;;;;;3.18;69.64;101603.25;5107510;28;20065;-74
2022/02/11 00:15:22;;;;;;;1.40;0.45;;;;;;;3.16;69.32;101606.13;5097693;28;20027;-74
2022/02/11 00:17:47;;;;;;;5.25;1.33;;;;;;;3.14;69.48;101617.13;5106946;28;20582;-74
2022/02/11 00:20:12;;;;;;;3.05;0.60;;;;;;;3.11;69.66;101613.94;5109702;28;20023;-75
2022/02/11 00:22:38;;;;;;;1.70;0.77;;;;;;;3.13;69.75;101617.31;5109918;28;20026;-72
2022/02/11 00:25:04;;;;;;;10.98;1.05;;;;;;;3.11;69.56;101622.06;5109688;28;20032;-75
2022/02/11 00:28:02;;;;;;;8.85;0.98;;;;;;;3.08;69.41;101627.84;5108419;28;20024;-75
2022/02/11 00:35:41;;;;;;;5.50;0.90;;;;;;;2.93;69.78;101623.28;5111225;28;20405;-75
2022/02/11 00:38:13;;;;;;;0.77;0.40;;;;;;;2.95;69.77;101629.34;5096248;28;20023;-73
2022/02/11 00:41:40;;;;;;;4.10;1.20;;;;;;;2.94;69.70;101635.75;5112801;28;20051;-75
2022/02/11 01:02:19;;;;;;;1.08;0.57;;;;;;;2.82;69.75;101658.88;5115856;28;20104;-74
2022/02/11 01:04:46;;;;;;;8.13;0.63;;;;;;;2.81;69.79;101657.19;5101142;28;20031;-72
2022/02/11 01:07:13;;;;;;;1.70;0.70;;;;;;;2.78;69.75;101662.97;5115975;28;20051;-73
2022/02/11 01:09:40;;;;;;;4.32;0.90;;;;;;;2.74;69.90;101657.06;5112371;27;20032;-73
2022/02/11 01:12:07;;;;;;;8.32;1.48;;;;;;;2.67;70.27;101656.13;5112100;28;20077;-74
2022/02/11 01:14:38;;;;;;;7.47;1.13;;;;;;;2.61;70.33;101646.06;5114285;28;20028;-75
2022/02/11 01:27:53;;;;;;;12.88;1.10;;;;;;;2.34;71.00;101658.31;5105795;28;20077;-69
2022/02/11 01:35:39;;;;;;;2.00;0.75;;;;;;;2.26;71.93;101680.78;5109279;28;20030;-72
2022/02/11 01:38:19;;;;;;;3.60;1.10;;;;;;;2.25;72.07;101679.13;5114056;28;20015;-72
2022/02/11 01:51:27;;;;;;;4.43;1.05;;;;;;;1.94;72.63;101690.78;5099563;28;20499;-70
2022/02/11 01:59:43;;;;;;;7.75;1.88;;;;;;;1.80;73.77;101681.59;5107140;28;20026;-75
2022/02/11 02:31:56;;;;;;;1.65;0.68;;;;;;;2.02;74.39;101711.50;5083748;28;20028;-70
2022/02/11 02:58:07;;;;;;;1.27;0.57;;;;;;;2.21;73.20;101734.47;5102101;28;20026;-72
2022/02/11 03:00:58;;;;;;;4.05;0.50;;;;;;;2.19;72.86;101733.78;5105161;28;20020;-73
2022/02/11 03:53:07;;;;;;;7.68;0.95;;;;;;;1.42;74.96;101745.28;5102823;28;20024;-72
2022/02/11 03:57:43;;;;;;;4.72;0.60;;;;;;;1.42;75.15;101743.44;5105631;28;20513;-71
2022/02/11 04:20:21;;;;;;;2.05;0.75;;;;;;;1.47;74.99;101746.44;5102147;28;20565;-72
2022/02/11 04:22:48;;;;;;;0.50;0.43;;;;;;;1.60;74.59;101766.63;5102081;28;20039;-69
2022/02/11 05:00:28;;;;;;;3.33;0.75;;;;;;;1.31;75.62;101827.34;5098611;28;20070;-71
2022/02/11 05:02:57;;;;;;;1.33;0.50;;;;;;;1.29;75.72;101829.38;5087652;28;20473;-73
2022/02/11 05:05:23;;;;;;;2.17;0.50;;;;;;;1.26;75.47;101835.13;5090958;28;20040;-70
2022/02/11 05:07:49;;;;;;;0.13;0.13;;;;;;;1.26;75.40;101835.94;5084601;28;20810;-71
2022/02/11 05:10:15;;;;;;;2.10;0.52;;;;;;;1.24;75.65;101840.66;5106783;28;20027;-71
2022/02/11 05:12:45;;;;;;;1.83;0.65;;;;;;;1.20;74.78;101852.81;5095724;28;20032;-70
2022/02/11 05:15:11;;;;;;;1.38;0.52;;;;;;;1.16;75.47;101852.28;5098584;28;20807;-72
2022/02/11 05:17:39;;;;;;;3.08;0.40;;;;;;;1.12;75.37;101860.88;5101821;28;20480;-71
2022/02/11 05:20:06;;;;;;;1.75;0.47;;;;;;;1.09;75.49;101867.44;5102681;28;20035;-70
2022/02/11 05:22:33;;;;;;;2.13;0.47;;;;;;;1.09;74.67;101877.38;5099459;28;20028;-71
2022/02/11 05:24:58;;;;;;;0.77;0.22;;;;;;;1.07;74.53;101885.63;5102532;28;20454;-70
2022/02/11 05:27:24;;;;;;;0.68;0.60;;;;;;;1.02;75.13;101879.91;5094879;28;20097;-72
2022/02/11 05:29:49;;;;;;;1.38;0.40;;;;;;;0.99;75.14;101883.78;5085939;28;20019;-70
2022/02/11 05:32:15;;;;;;;1.60;0.50;;;;;;;0.94;74.60;101885.28;5085711;28;20097;-70
2022/02/11 05:34:40;;;;;;;5.70;1.08;;;;;;;0.86;75.74;101889.66;5090909;28;20043;-70
2022/02/11 05:37:06;;;;;;;1.95;0.70;;;;;;;0.83;75.28;101889.13;5098446;28;20039;-71
2022/02/11 05:39:31;;;;;;;5.97;1.42;;;;;;;0.81;75.68;101891.16;5068215;28;20118;-69
2022/02/11 05:41:57;;;;;;;1.27;0.57;;;;;;;0.80;76.11;101895.69;5083024;28;20042;-70
2022/02/11 05:44:22;;;;;;;2.80;0.75;;;;;;;0.80;76.25;101895.69;5084765;28;20375;-70
2022/02/11 05:46:48;;;;;;;2.85;0.45;;;;;;;0.79;76.34;101904.78;5090759;28;20221;-71
2022/02/11 05:49:13;;;;;;;3.35;0.47;;;;;;;0.79;76.01;101904.78;5107336;28;20105;-71
2022/02/11 05:51:39;;;;;;;0.93;0.38;;;;;;;0.78;75.31;101908.47;5096117;28;20036;-72
2022/02/11 05:54:05;;;;;;;0.95;0.77;;;;;;;0.78;75.35;101905.78;5107830;28;20039;-70
2022/02/11 05:56:30;;;;;;;2.63;0.68;;;;;;;0.76;75.37;101912.34;5098988;28;20031;-71
2022/02/11 05:58:56;;;;;;;1.85;0.68;;;;;;;0.73;75.28;101910.84;5084052;28;20101;-71
2022/02/11 06:01:21;;;;;;;1.55;0.50;;;;;;;0.72;76.43;101919.91;5085812;28;20028;-71
2022/02/11 06:03:47;;;;;;;2.28;0.65;;;;;;;0.69;76.46;101925.63;5088595;28;20030;-71
2022/02/11 06:06:12;;;;;;;0.70;0.68;;;;;;;0.69;76.49;101936.41;5084448;28;20039;-71
2022/02/11 06:08:38;;;;;;;2.60;0.80;;;;;;;0.70;76.30;101927.31;5110947;28;20071;-71
2022/02/11 06:11:05;;;;;;;2.83;0.80;;;;;;;0.68;75.60;101929.31;5082928;28;20044;-71
2022/02/11 06:13:30;;;;;;;0.40;0.30;;;;;;;0.70;75.99;101927.31;5083381;28;20168;-70
2022/02/11 06:15:56;;;;;;;0.10;0.10;;;;;;;0.71;75.59;101923.59;5103305;28;20106;-70
2022/02/11 06:18:22;;;;;;;0.30;0.10;;;;;;;0.71;75.01;101917.38;5100975;28;20024;-69
2022/02/11 06:20:48;;;;;;;0.08;0.08;;;;;;;0.71;74.68;101930.84;5106944;28;20055;-71
2022/02/11 06:23:13;;;;;;;0.00;0.00;;;;;;;0.66;74.57;101932.19;5104401;28;20727;-72
2022/02/11 06:25:39;;;;;;;0.40;0.30;;;;;;;0.65;74.89;101927.78;5088275;28;20057;-71
2022/02/11 06:28:04;;;;;;;0.20;0.13;;;;;;;0.65;74.29;101948.50;5091774;28;20032;-71
2022/02/11 06:30:30;;;;;;;0.15;0.15;;;;;;;0.62;74.42;101957.75;5096689;28;20398;-71
2022/02/11 06:32:55;;;;;;;1.65;0.40;;;;;;;0.56;74.04;101954.88;5106329;28;20106;-73
2022/02/11 06:35:21;;;;;;;0.32;0.32;;;;;;;0.56;75.08;101966.47;5088857;28;20028;-72
2022/02/11 06:37:48;;;;;;;0.20;0.20;;;;;;;0.54;74.55;101960.41;5095626;28;20453;-74
2022/02/11 06:40:15;;;;;;;1.55;0.60;;;;;;;0.52;74.43;101968.63;5094920;28;20119;-74
2022/02/11 06:42:42;;;;;;;3.15;0.85;;;;;;;0.46;74.48;101974.66;5111900;28;20019;-72
2022/02/11 06:45:09;;;;;;;2.05;0.95;;;;;;;0.41;74.54;101977.00;5110273;28;20037;-72
2022/02/11 06:47:34;;;;;;;4.78;0.70;;;;;;;0.35;74.59;101969.56;5105387;28;20488;-73
2022/02/11 06:50:00;;;;;;;0.98;0.65;;;;;;;0.34;74.60;101978.66;5083475;28;20123;-72
2022/02/11 06:52:26;;;;;;;1.33;0.70;;;;;;;0.32;74.72;101991.41;5087446;28;20035;-73
2022/02/11 06:54:51;;;;;;;3.13;0.82;;;;;;;0.29;75.28;101983.66;5094551;28;20019;-73
2022/02/11 06:57:18;;;;;;;2.45;0.73;;;;;;;0.26;75.92;101978.59;5102859;28;20465;-73
2022/02/11 06:59:43;;;;;;;0.20;0.20;;;;;;;0.27;75.19;101985.69;5106841;28;20028;-73
2022/02/11 07:02:18;;;;;;;0.55;0.28;;;;;;;0.25;74.67;101976.91;5109059;28;20027;-74
2022/02/11 07:04:44;;;;;;;0.13;0.13;;;;;;;0.28;74.72;101993.59;5112163;28;20027;-73
2022/02/11 07:07:09;;;;;;;0.10;0.10;;;;;;;0.28;74.42;101998.13;5108301;28;20525;-73
2022/02/11 07:09:35;;;;;;;0.22;0.22;;;;;;;0.26;74.23;102000.13;5113042;28;20123;-73
2022/02/11 07:12:01;;;;;;;0.30;0.30;;;;;;;0.27;75.58;102007.22;5077224;28;20118;-72
2022/02/11 07:14:26;;;;;;;0.55;0.40;;;;;;;0.26;75.35;102000.13;5109795;28;20055;-73
2022/02/11 07:16:52;;;;;;;0.65;0.10;;;;;;;0.26;75.02;102008.19;5090393;28;20020;-72
2022/02/11 07:19:17;;;;;;;0.45;0.20;;;;;;;0.23;75.12;102013.91;5107809;28;20078;-74
2022/02/11 07:21:43;;;;;;;1.83;0.45;;;;;;;0.26;75.26;102027.03;5108291;28;20028;-73
2022/02/11 07:24:08;;;;;;;0.65;0.47;;;;;;;0.27;74.87;102023.34;5074379;28;20031;-73
2022/02/11 07:26:34;;;;;;;1.42;0.65;;;;;;;0.28;75.60;102019.66;5104075;28;20448;-73
2022/02/11 07:28:59;;;;;;;1.50;0.80;;;;;;;0.30;75.74;102023.03;5100531;28;20035;-77
2022/02/11 07:31:25;;;;;;;0.45;0.32;;;;;;;0.30;75.75;102020.34;5094054;28;20039;-78
2022/02/11 07:33:50;;;;;;;2.53;0.30;;;;;;;0.34;76.51;102027.09;5095414;28;20110;-76
2022/02/11 07:36:16;;;;;;;0.47;0.28;;;;;;;0.42;76.72;102037.06;5097661;28;20032;-76
2022/02/11 07:38:44;;;;;;;0.20;0.17;;;;;;;0.42;75.79;102021.75;5094400;27;20032;-72
2022/02/11 07:41:14;;;;;;;0.32;0.10;;;;;;;0.50;75.92;102032.56;5070999;28;20028;-72
2022/02/11 07:43:40;;;;;;;0.75;0.10;;;;;;;0.56;75.66;102038.34;5085278;28;20036;-72
2022/02/11 07:46:05;;;;;;;0.20;0.10;;;;;;;0.61;75.59;102052.13;5105476;28;20032;-73
2022/02/11 07:48:30;;;;;;;1.17;0.38;;;;;;;0.66;76.31;102058.72;5079842;28;20040;-73
2022/02/11 07:50:56;;;;;;;0.20;0.20;;;;;;;0.71;76.18;102055.56;5093076;28;20074;-72
2022/02/11 07:53:22;;;;;;;0.20;0.00;;;;;;;0.75;76.08;102048.84;5083793;28;20040;-73
2022/02/11 07:55:47;;;;;;;0.28;0.20;;;;;;;0.84;75.21;102053.25;5104671;28;20074;-73
2022/02/11 07:58:16;;;;;;;1.13;0.20;;;;;;;0.90;75.42;102061.72;5084273;28;20024;-73
2022/02/11 08:00:41;;;;;;;0.20;0.10;;;;;;;0.96;75.24;102058.34;5070864;28;20027;-73
2022/02/11 08:03:07;;;;;;;0.40;0.20;;;;;;;1.02;75.07;102060.41;5108432;28;20034;-72
2022/02/11 08:05:32;;;;;;;0.10;0.10;;;;;;;1.10;75.41;102065.00;5094065;28;20109;-71
2022/02/11 08:07:58;;;;;;;0.17;0.10;;;;;;;1.15;74.98;102071.56;5102710;28;20054;-70
2022/02/11 08:10:23;;;;;;;0.95;0.40;;;;;;;1.24;75.71;102074.28;5104196;28;20035;-72
2022/02/11 08:12:49;;;;;;;0.10;0.10;;;;;;;1.31;74.81;102078.84;5105470;28;21450;-74
2022/02/11 08:15:14;;;;;;;0.20;0.05;;;;;;;1.35;75.46;102066.75;5094555;28;20038;-74
2022/02/11 08:17:46;;;;;;;0.13;0.13;;;;;;;1.46;75.61;102067.44;5106169;28;20019;-73
2022/02/11 08:20:11;;;;;;;0.20;0.10;;;;;;;1.53;75.16;102080.09;5109368;28;20024;-76
2022/02/11 08:22:39;;;;;;;1.02;0.20;;;;;;;1.66;75.42;102092.25;5105645;28;20090;-70
2022/02/11 08:25:05;;;;;;;2.80;0.20;;;;;;;1.73;75.29;102091.41;5094094;28;20034;-73
2022/02/11 08:27:31;;;;;;;6.32;1.42;;;;;;;1.73;75.18;102085.19;5105684;28;20565;-74
2022/02/11 08:29:56;;;;;;;3.47;2.30;;;;;;;1.83;74.87;102095.81;5107196;28;20359;-74
2022/02/11 08:32:22;;;;;;;6.95;3.40;;;;;;;1.83;74.79;102104.75;5071740;28;20032;-73
2022/02/11 08:34:49;;;;;;;5.07;2.85;;;;;;;1.82;75.21;102092.25;5085280;28;20028;-72
2022/02/11 08:37:17;;;;;;;2.35;2.15;;;;;;;1.84;74.97;102095.66;5090655;28;20389;-72
2022/02/11 08:39:45;;;;;;;2.00;1.80;;;;;;;1.88;75.01;102094.31;5091477;28;20469;-72
2022/02/11 08:42:13;;;;;;;4.15;2.80;;;;;;;2.01;75.21;102104.59;5103617;28;20028;-74
2022/02/11 08:44:41;;;;;;;1.73;1.63;;;;;;;2.17;74.85;102116.41;5086591;28;20039;-74
2022/02/11 08:47:10;;;;;;;6.63;1.60;;;;;;;2.55;76.51;102119.41;5109980;28;20080;-73
2022/02/11 08:49:38;;;;;;;1.38;1.20;;;;;;;3.39;77.42;102109.00;5064211;28;20034;-75
2022/02/11 08:59:05;;;;;;;1.48;0.68;;;;;;;7.32;69.01;102115.91;5066873;28;20046;-75
2022/02/11 09:02:09;;;;;;;1.75;0.55;;;;;;;8.32;66.84;102121.59;5094371;28;20019;-74
2022/02/11 09:05:04;;;;;;;0.43;0.30;;;;;;;9.57;64.25;102131.59;5094407;28;20060;-75
2022/02/11 09:08:19;;;;;;;0.35;0.22;;;;;;;10.53;62.37;102130.75;5050797;28;20029;-73
2022/02/11 09:25:05;;;;;;;3.33;0.90;;;;;;;15.07;54.43;102153.94;4976141;28;20032;-75
2022/02/11 09:27:45;;;;;;;;;;;;;;;;;;;;;
2022/02/11 09:30:17;;;;;;;4.07;0.93;;;;;;;14.88;53.33;102161.66;5042118;28;20035;-74
2022/02/11 09:33:16;;;;;;;;;;;;;;;;;;;;;
2022/02/11 09:35:46;;;;;;;2.65;0.80;;;;;;;15.79;52.87;102177.75;5019081;28;20121;-77
2022/02/11 09:41:54;;;;;;;1.40;1.23;;;;;;;16.30;47.55;102160.88;5113169;28;20038;-76
2022/02/11 09:44:31;;;;;;;;;;;;;;;;;;;;;
2022/02/11 10:16:47;;;;;;;2.97;1.05;;;;;;;22.98;38.26;102155.13;5006346;23;20058;-75
2022/02/11 10:19:50;;;;;;;1.20;0.90;;;;;;;23.10;37.46;102163.88;5001641;28;20043;-75
2022/02/11 10:25:56;;;;;;;0.82;0.82;;;;;;;23.27;36.63;102181.94;4955654;28;20039;-76
2022/02/11 10:28:52;;;;;;;3.65;1.40;;;;;;;23.61;35.25;102178.72;4980908;28;20077;-74
2022/02/11 10:31:39;;;;;;;2.97;1.60;;;;;;;23.72;33.66;102182.09;4982396;28;20035;-73
2022/02/11 10:34:25;;;;;;;;;;;;;;;;;;;;;
2022/02/11 10:37:08;;;;;;;1.55;1.30;;;;;;;23.55;32.41;102193.09;4987722;28;20146;-74
2022/02/11 10:40:07;;;;;;;;;;;;;;;;;;;;;
2022/02/11 10:47:24;;;;;;;1.98;1.20;;;;;;;23.83;29.46;102186.34;4927146;29;20455;-74
2022/02/11 10:56:54;;;;;;;2.78;1.25;;;;;;;24.47;30.38;102171.41;4913139;29;20067;-75
2022/02/11 11:03:18;;;;;;;2.67;0.65;;;;;;;26.08;29.10;102165.72;4877253;29;20033;-74
2022/02/11 11:06:38;;;;;;;0.70;0.50;;;;;;;26.70;28.71;102192.56;4877823;29;20088;-74
2022/02/11 11:09:51;;;;;;;1.17;1.08;;;;;;;26.90;27.89;102173.38;4869657;29;20029;-72
2022/02/11 11:16:58;;;;;;;;;;;;;;;;;;;;;
2022/02/11 11:20:34;;;;;;;;;;;;;;;;;;;;;
2022/02/11 11:23:29;;;;;;;0.43;0.43;;;;;;;30.16;27.05;102187.47;4769223;29;20047;-74
2022/02/11 11:26:37;;;;;;;;;;;;;;;;;;;;;
2022/02/11 11:29:29;;;;;;;;;;;;;;;;;;;;;
2022/02/11 11:32:26;;;;;;;0.50;0.50;;;;;;;31.44;23.74;102177.97;4903476;28;20043;-75
2022/02/11 11:35:25;;;;;;;;;;;;;;;;;;;;;
2022/02/11 11:38:09;;;;;;;1.02;0.57;;;;;;;31.93;23.20;102190.78;4971944;28;20026;-74
2022/02/11 11:40:56;;;;;;;0.77;0.77;;;;;;;31.38;22.47;102187.91;4964611;28;20026;-77
2022/02/11 11:43:36;;;;;;;0.85;0.85;;;;;;;30.64;22.02;102179.97;4964479;28;20122;-73
2022/02/11 11:46:25;;;;;;;2.75;0.63;;;;;;;30.26;22.16;102181.31;4946037;28;20114;-73
2022/02/11 11:49:03;;;;;;;0.50;0.50;;;;;;;30.11;21.90;102178.09;4942591;28;20097;-72
2022/02/11 11:51:49;;;;;;;0.85;0.50;;;;;;;29.99;21.35;102166.84;4960795;28;20110;-75
2022/02/11 11:54:33;;;;;;;0.93;0.55;;;;;;;29.93;22.02;102162.63;4958463;28;20051;-74
2022/02/11 11:57:14;;;;;;;2.85;0.85;;;;;;;29.68;21.30;102162.69;4957826;28;20042;-73
2022/02/11 11:59:51;;;;;;;0.50;0.30;;;;;;;29.43;22.40;102165.53;4986093;28;20085;-74
2022/02/11 12:02:25;;;;;;;0.95;0.50;;;;;;;29.26;21.03;102162.97;4991238;28;20053;-74
2022/02/11 12:05:06;;;;;;;0.90;0.80;;;;;;;28.38;21.74;102163.97;4986680;28;20078;-74
2022/02/11 12:07:40;;;;;;;1.30;0.75;;;;;;;27.33;21.10;102156.31;4955726;28;20476;-75
2022/02/11 12:10:20;;;;;;;0.85;0.63;;;;;;;26.47;22.26;102155.47;4954552;28;20031;-74
2022/02/11 12:12:56;;;;;;;1.85;0.90;;;;;;;26.13;23.17;102135.56;4972190;28;20047;-74
2022/02/11 12:15:24;;;;;;;1.70;0.98;;;;;;;26.19;22.25;102149.41;4942242;28;20041;-74
2022/02/11 12:17:53;;;;;;;0.85;0.50;;;;;;;25.99;22.71;102150.88;4954445;28;20075;-73
2022/02/11 12:20:27;;;;;;;2.67;0.90;;;;;;;26.12;22.83;102127.47;4968753;28;20037;-73
2022/02/11 12:27:20;;;;;;;3.38;0.70;;;;;;;26.69;23.01;102139.59;4984181;28;20107;-73
2022/02/11 12:28:30;;;;;;;0.95;0.30;;;;;;;28.08;22.65;102131.50;4996948;28;20029;-74
2022/02/11 12:30:55;;;;;;;1.20;0.32;;;;;;;28.71;22.88;102120.94;4969818;28;20025;-74
2022/02/11 12:33:28;;;;;;;0.50;0.40;;;;;;;29.25;22.49;102122.72;4970887;28;20125;-74
2022/02/11 12:36:10;;;;;;;4.65;1.05;;;;;;;28.29;19.96;102115.41;4987175;28;20034;-74
2022/02/11 12:38:36;;;;;;;1.00;0.88;;;;;;;26.79;20.45;102114.78;4992600;28;20023;-74
2022/02/11 12:41:02;;;;;;;1.15;0.65;;;;;;;25.49;20.48;102105.38;4984857;28;20022;-73
2022/02/11 12:43:30;;;;;;;0.98;0.60;;;;;;;24.58;22.00;102107.66;4984407;28;20465;-73
2022/02/11 12:45:56;;;;;;;1.40;0.60;;;;;;;24.71;23.29;102097.56;4991906;28;20026;-73
2022/02/11 12:48:40;;;;;;;6.15;1.00;;;;;;;24.88;22.82;102103.22;4976391;28;20030;-73
2022/02/11 12:51:20;;;;;;;;;;;;;;;;;;;;;
2022/02/11 12:53:56;;;;;;;1.92;0.93;;;;;;;25.30;22.02;102102.03;4990742;28;20285;-74
2022/02/11 12:56:29;;;;;;;3.55;0.50;;;;;;;24.80;23.06;102095.63;4975429;28;20069;-74
2022/02/11 12:59:15;;;;;;;1.23;0.50;;;;;;;24.71;22.95;102094.75;4944203;28;20125;-74
2022/02/11 13:09:08;;;;;;;4.07;0.77;;;;;;;20.87;23.40;102094.28;4995289;28;20078;-73
2022/02/11 13:11:39;;;;;;;3.78;1.20;;;;;;;19.79;24.53;102082.16;4975407;28;20393;-73
2022/02/11 13:14:07;;;;;;;1.80;0.65;;;;;;;19.11;25.12;102089.16;4978004;28;20453;-73
2022/02/11 13:16:41;;;;;;;1.23;0.63;;;;;;;18.41;26.18;102066.88;4993855;28;20086;-73
2022/02/11 13:19:11;;;;;;;3.73;1.10;;;;;;;17.82;27.04;102060.78;4966477;28;20496;-74
2022/02/11 13:21:43;;;;;;;1.75;1.13;;;;;;;17.24;28.34;102063.69;4975702;28;20322;-72
2022/02/11 13:24:09;;;;;;;4.55;1.20;;;;;;;16.51;28.88;102058.88;4960748;28;20034;-72
2022/02/11 13:26:52;;;;;;;;;;;;;;;;;;;;;
2022/02/11 13:29:23;;;;;;;0.57;0.43;;;;;;;16.06;31.09;102058.28;4970757;28;20109;-73
2022/02/11 13:31:50;;;;;;;1.13;0.55;;;;;;;16.89;31.13;102079.88;4942240;28;20027;-72
2022/02/11 13:34:15;;;;;;;2.58;1.17;;;;;;;17.54;30.81;102064.91;4968094;28;20126;-74
2022/02/11 13:36:48;;;;;;;0.70;0.55;;;;;;;17.90;30.11;102064.97;4971672;28;20054;-73
2022/02/11 13:39:32;;;;;;;1.67;0.50;;;;;;;17.78;29.25;102071.56;4964698;28;20037;-72
2022/02/11 13:42:09;;;;;;;1.63;0.60;;;;;;;17.60;29.84;102061.84;4963570;28;20516;-73
2022/02/11 13:44:37;;;;;;;2.75;0.60;;;;;;;17.49;29.63;102060.16;4970986;28;20030;-72
2022/02/11 13:47:03;;;;;;;1.10;0.85;;;;;;;17.17;29.84;102061.19;4973783;28;20105;-73
2022/02/11 13:49:38;;;;;;;0.52;0.30;;;;;;;16.70;29.98;102049.03;4956277;28;20065;-72
2022/02/11 13:55:10;;;;;;;1.17;0.57;;;;;;;15.75;31.01;102038.66;4978290;28;20133;-71
2022/02/11 13:57:55;;;;;;;3.58;0.80;;;;;;;15.54;32.12;102041.22;4970558;28;20472;-72
2022/02/11 14:00:36;;;;;;;2.30;0.47;;;;;;;15.40;32.56;102028.94;4980165;28;20029;-72
2022/02/11 14:03:14;;;;;;;1.20;0.47;;;;;;;15.25;32.27;102043.41;4977483;28;20041;-71
2022/02/11 14:05:47;;;;;;;0.50;0.45;;;;;;;15.00;33.00;102035.69;4972243;28;20046;-73
2022/02/11 14:08:12;;;;;;;1.75;0.57;;;;;;;14.90;33.04;102028.09;4978254;28;20034;-74
2022/02/11 14:10:46;;;;;;;5.32;0.90;;;;;;;14.79;33.45;102024.41;4959230;28;20019;-75
2022/02/11 14:13:17;;;;;;;0.80;0.65;;;;;;;14.88;34.32;102029.44;4965419;28;20033;-74
2022/02/11 14:15:44;;;;;;;1.70;0.75;;;;;;;15.35;34.82;102006.88;4969882;28;20465;-74
2022/02/11 14:18:23;;;;;;;0.75;0.50;;;;;;;16.18;34.64;102008.44;4966875;28;20046;-74
2022/02/11 14:24:05;;;;;;;;;;;;;;;;;;;;;
2022/02/11 14:26:31;;;;;;;2.85;1.05;;;;;;;19.54;29.96;102008.22;4973869;28;20105;-76
2022/02/11 14:29:23;;;;;;;4.60;0.80;;;;;;;19.99;29.26;102003.44;4973031;28;20046;-74
2022/02/11 14:31:59;;;;;;;;;;;;;;;;;;;;;
2022/02/11 14:34:25;;;;;;;0.77;0.60;;;;;;;20.38;27.53;101996.97;4969357;28;20082;-75
2022/02/11 14:36:50;;;;;;;2.20;0.93;;;;;;;20.30;27.12;102008.69;4972827;28;20410;-74
2022/02/11 14:39:17;;;;;;;7.57;0.77;;;;;;;20.34;26.14;102009.78;4967081;28;20031;-74
2022/02/11 14:42:01;;;;;;;1.85;1.08;;;;;;;20.32;26.44;102006.44;4961443;28;21636;-74
2022/02/11 14:44:32;;;;;;;3.38;1.25;;;;;;;19.89;25.33;101995.22;4980758;28;20031;-73
2022/02/11 14:47:18;;;;;;;3.72;1.00;;;;;;;19.00;25.93;101999.66;4979316;28;20025;-74
2022/02/11 14:49:44;;;;;;;2.33;0.93;;;;;;;18.37;26.79;101996.53;4983268;28;20449;-76
2022/02/11 14:59:11;;;;;;;5.07;1.42;;;;;;;17.33;28.59;101989.34;4913412;29;20064;-74
2022/02/11 15:01:58;;;;;;;3.70;1.17;;;;;;;16.75;28.98;102002.13;4979169;28;20098;-75
2022/02/11 15:05:24;;;;;;;1.83;0.82;;;;;;;16.16;29.68;101972.81;4948928;28;20031;-75
2022/02/11 15:11:17;;;;;;;1.77;0.73;;;;;;;16.05;30.43;101994.00;4921477;29;20043;-76
2022/02/11 15:13:55;;;;;;;;;;;;;;;;;;;;;
2022/02/11 15:17:02;;;;;;;0.80;0.57;;;;;;;15.81;30.94;101988.03;4921573;29;20111;-74
2022/02/11 15:20:23;;;;;;;;;;;;;;;;;;;;;
2022/02/11 15:22:49;;;;;;;0.90;0.60;;;;;;;15.41;31.43;101982.94;4955065;28;20544;-73
2022/02/11 15:25:37;;;;;;;2.45;1.02;;;;;;;15.29;32.16;101992.19;4973334;28;20141;-75
2022/02/11 15:28:03;;;;;;;4.22;1.48;;;;;;;14.97;32.49;101989.38;4974734;28;20051;-75
2022/02/11 15:30:29;;;;;;;2.42;1.00;;;;;;;14.64;32.40;101966.38;4962629;28;20059;-74
2022/02/11 15:32:58;;;;;;;1.33;1.00;;;;;;;14.48;32.51;101979.06;4975092;28;20042;-72
2022/02/11 15:35:33;;;;;;;1.63;0.80;;;;;;;14.14;33.19;101949.69;4961081;28;20101;-73
2022/02/11 15:38:08;;;;;;;4.63;1.15;;;;;;;13.96;33.88;101966.50;4980523;28;20050;-72
2022/02/11 15:40:34;;;;;;;5.30;1.73;;;;;;;13.79;34.33;101952.75;4956836;28;20385;-73
2022/02/11 15:42:59;;;;;;;1.73;0.77;;;;;;;13.71;34.66;101967.75;4958120;28;20030;-73
2022/02/11 15:45:27;;;;;;;2.30;0.82;;;;;;;13.70;34.62;101955.09;4959902;28;20031;-72
2022/02/11 15:47:57;;;;;;;1.50;1.17;;;;;;;13.55;35.31;101952.91;4962610;28;20832;-73
2022/02/11 15:50:23;;;;;;;8.05;2.22;;;;;;;13.35;35.12;101958.88;4972136;28;20026;-73
2022/02/11 15:52:52;;;;;;;2.55;1.90;;;;;;;13.18;35.11;101964.28;4975187;28;20035;-73
2022/02/11 15:55:21;;;;;;;8.32;2.38;;;;;;;12.91;35.77;101958.59;4975088;28;20027;-72
2022/02/11 15:57:47;;;;;;;3.33;1.95;;;;;;;12.73;35.75;101970.56;4945583;28;20070;-72
2022/02/11 16:00:19;;;;;;;4.63;2.50;;;;;;;12.46;36.85;101959.31;4978225;28;20074;-73
2022/02/11 16:02:45;;;;;;;5.32;2.80;;;;;;;12.14;37.24;101948.72;4962006;28;20058;-74
2022/02/11 16:05:14;;;;;;;4.93;2.70;;;;;;;11.92;37.80;101951.19;4964615;28;20046;-71
2022/02/11 16:07:42;;;;;;;4.70;1.98;;;;;;;11.58;38.77;101946.28;4977203;28;20026;-73
2022/02/11 16:10:17;;;;;;;3.92;1.83;;;;;;;11.28;38.71;101958.09;4962052;28;20041;-73
2022/02/11 16:13:01;;;;;;;1.80;1.40;;;;;;;11.04;40.32;101950.84;4964423;28;20129;-72
2022/02/11 16:15:27;;;;;;;4.82;1.58;;;;;;;10.85;40.52;101942.69;4963376;28;20045;-76
2022/02/11 16:18:05;;;;;;;2.90;1.45;;;;;;;10.72;41.09;101945.59;4985223;28;20042;-73
2022/02/11 16:20:59;;;;;;;2.72;1.33;;;;;;;10.49;41.38;101955.34;4967385;28;20053;-73
2022/02/11 16:23:25;;;;;;;7.93;3.90;;;;;;;10.23;42.91;101951.78;4999693;28;20079;-73
2022/02/11 16:26:00;;;;;;;1.73;1.27;;;;;;;9.94;43.08;101943.25;4996654;28;20027;-72
2022/02/11 16:28:33;;;;;;;7.53;2.30;;;;;;;9.72;43.44;101937.34;4973092;28;20030;-71
2022/02/11 16:31:24;;;;;;;4.78;2.53;;;;;;;9.61;43.78;101952.56;4978908;28;20037;-74
2022/02/11 16:33:59;;;;;;;3.60;2.30;;;;;;;9.40;44.74;101944.75;4964663;28;20023;-74
2022/02/11 16:36:39;;;;;;;3.90;2.05;;;;;;;9.15;45.18;101934.63;4994275;28;20384;-72
2022/02/11 16:39:05;;;;;;;2.05;1.77;;;;;;;8.95;45.40;101933.91;4978822;28;20074;-75
2022/02/11 16:41:32;;;;;;;6.90;2.08;;;;;;;8.88;46.36;101940.22;4987991;28;20022;-72
2022/02/11 16:43:58;;;;;;;5.15;1.45;;;;;;;8.75;45.81;101929.41;4951248;28;20023;-73
2022/02/11 16:46:47;;;;;;;3.92;1.83;;;;;;;8.68;46.81;101943.03;4960190;28;20031;-72
2022/02/11 16:49:22;;;;;;;6.00;1.92;;;;;;;8.50;47.46;101938.31;4987990;28;20042;-72
2022/02/11 16:51:58;;;;;;;;;;;;;;;;;;;;;
2022/02/11 16:54:29;;;;;;;4.72;1.15;;;;;;;8.30;48.35;101937.50;4986301;28;20117;-72
2022/02/11 16:57:03;;;;;;;3.70;1.77;;;;;;;8.18;47.86;101919.06;4994790;28;20038;-72
2022/02/11 16:59:29;;;;;;;2.65;1.67;;;;;;;8.17;49.29;101939.19;4981391;28;20057;-73
2022/02/11 17:01:59;;;;;;;3.03;1.40;;;;;;;8.04;49.83;101933.75;4991158;28;20026;-72
2022/02/11 17:04:25;;;;;;;5.63;1.58;;;;;;;7.92;49.34;101940.91;4983471;28;20104;-74
2022/02/11 17:06:55;;;;;;;2.83;1.80;;;;;;;7.83;49.58;101943.84;4955001;28;20034;-74
2022/02/11 17:09:20;;;;;;;3.92;1.23;;;;;;;7.73;50.37;101943.44;4974733;28;20034;-73
2022/02/11 17:11:51;;;;;;;3.88;1.17;;;;;;;7.65;50.62;101940.91;4963756;28;20050;-72
2022/02/11 17:14:17;;;;;;;2.53;1.02;;;;;;;7.53;50.46;101932.53;4951715;28;20105;-73
2022/02/11 17:16:43;;;;;;;3.17;1.23;;;;;;;7.53;49.99;101937.16;4966580;28;20030;-72
2022/02/11 17:19:10;;;;;;;2.13;1.52;;;;;;;7.50;51.04;101938.41;4960889;28;20066;-73
2022/02/11 17:22:00;;;;;;;1.58;1.15;;;;;;;7.49;50.93;101951.19;4976065;28;20026;-75
2022/02/11 17:24:28;;;;;;;1.10;0.85;;;;;;;7.44;50.90;101950.97;4984833;28;20107;-74
2022/02/11 17:27:25;;;;;;;;;;;;;;;;;;;;;
2022/02/11 17:30:29;;;;;;;2.10;1.02;;;;;;;7.36;51.03;101956.63;4971734;28;20109;-72
2022/02/11 17:33:03;;;;;;;4.35;1.48;;;;;;;7.20;51.73;101949.69;4991490;28;20061;-73
2022/02/11 17:35:36;;;;;;;1.40;0.93;;;;;;;7.10;52.15;101950.06;4968266;28;20063;-74
2022/02/11 17:38:27;;;;;;;2.83;1.25;;;;;;;6.86;52.41;101931.59;4972314;28;20037;-73
2022/02/11 17:41:00;;;;;;;6.13;1.70;;;;;;;6.80;53.56;101946.81;4996456;28;20018;-71
2022/02/11 17:44:06;;;;;;;3.72;1.40;;;;;;;6.78;52.68;101957.91;4990007;28;20018;-73
2022/02/11 17:46:42;;;;;;;;;;;;;;;;;;;;;
2022/02/11 17:49:08;;;;;;;7.90;1.70;;;;;;;6.62;54.02;101947.41;4993321;28;20089;-75